sensor_id;sensor_type;location;lat;lon;timestamp;P1;durP1;ratioP1;P2;durP2;ratioP2
6997;SDS011;3539;47.982;12.238;2023-01-04T10:14:19;10.07;;;8.40;;
6997;SDS011;3539;47.982;12.238;2023-01-04T10:17:00;9.80;;;8.17;;
6997;SDS011;3539;47.982;12.238;2023-01-04T10:19:37;9.63;;;7.93;;
6997;SDS011;3539;47.982;12.238;2023-01-04T10:22:10;8.87;;;7.67;;
6997;SDS011;3539;47.982;12.238;2023-01-04T10:24:45;8.67;;;6.87;;
6997;SDS011;3539;47.982;12.238;2023-01-04T10:27:23;9.57;;;6.70;;
6997;SDS011;3539;47.982;12.238;2023-01-04T10:30:00;7.17;;;5.90;;
6997;SDS011;3539;47.982;12.238;2023-01-04T10:32:32;6.97;;;5.57;;
6997;SDS011;3539;47.982;12.238;2023-01-04T10:35:10;6.67;;;5.97;;
6997;SDS011;3539;47.982;12.238;2023-01-04T10:37:43;7.13;;;5.53;;
6997;SDS011;3539;47.982;12.238;2023-01-04T10:40:11;6.07;;;5.47;;
6997;SDS011;3539;47.982;12.238;2023-01-04T10:42:55;7.37;;;5.70;;
6997;SDS011;3539;47.982;12.238;2023-01-04T10:45:39;6.70;;;5.63;;
6997;SDS011;3539;47.982;12.238;2023-01-04T10:48:09;6.17;;;5.47;;
6997;SDS011;3539;47.982;12.238;2023-01-04T10:50:42;6.50;;;5.80;;
6997;SDS011;3539;47.982;12.238;2023-01-04T10:53:16;6.97;;;5.73;;
6997;SDS011;3539;47.982;12.238;2023-01-04T10:55:47;5.67;;;4.97;;
6997;SDS011;3539;47.982;12.238;2023-01-04T10:58:16;6.77;;;5.37;;
6997;SDS011;3539;47.982;12.238;2023-01-04T11:00:48;5.87;;;4.97;;
6997;SDS011;3539;47.982;12.238;2023-01-04T11:03:19;4.90;;;4.40;;
6997;SDS011;3539;47.982;12.238;2023-01-04T11:05:48;6.97;;;5.27;;
6997;SDS011;3539;47.982;12.238;2023-01-04T11:08:18;7.40;;;5.30;;
6997;SDS011;3539;47.982;12.238;2023-01-04T11:10:47;6.37;;;5.00;;
6997;SDS011;3539;47.982;12.238;2023-01-04T11:13:16;5.67;;;4.90;;
6997;SDS011;3539;47.982;12.238;2023-01-04T11:15:45;5.70;;;5.13;;
6997;SDS011;3539;47.982;12.238;2023-01-04T11:18:14;5.77;;;4.80;;
6997;SDS011;3539;47.982;12.238;2023-01-04T11:20:41;7.73;;;5.17;;
6997;SDS011;3539;47.982;12.238;2023-01-04T11:29:39;5.23;;;4.70;;
6997;SDS011;3539;47.982;12.238;2023-01-04T11:32:13;4.10;;;3.70;;
6997;SDS011;3539;47.982;12.238;2023-01-04T11:34:48;4.30;;;3.90;;
6997;SDS011;3539;47.982;12.238;2023-01-04T11:37:22;4.60;;;4.03;;
6997;SDS011;3539;47.982;12.238;2023-01-04T11:40:17;4.47;;;3.67;;
6997;SDS011;3539;47.982;12.238;2023-01-04T11:42:49;12.97;;;8.63;;
6997;SDS011;3539;47.982;12.238;2023-01-04T11:45:21;8.70;;;5.47;;
6997;SDS011;3539;47.982;12.238;2023-01-04T11:47:53;9.23;;;5.60;;
6997;SDS011;3539;47.982;12.238;2023-01-04T11:50:34;8.57;;;6.57;;
6997;SDS011;3539;47.982;12.238;2023-01-04T11:55:51;10.87;;;8.23;;
6997;SDS011;3539;47.982;12.238;2023-01-04T11:58:34;4.07;;;3.63;;
6997;SDS011;3539;47.982;12.238;2023-01-04T12:01:01;4.70;;;3.60;;
6997;SDS011;3539;47.982;12.238;2023-01-04T12:03:28;2.67;;;2.47;;
6997;SDS011;3539;47.982;12.238;2023-01-04T12:05:57;3.73;;;3.10;;
6997;SDS011;3539;47.982;12.238;2023-01-04T12:08:28;4.67;;;2.70;;
6997;SDS011;3539;47.982;12.238;2023-01-04T12:10:57;3.50;;;3.03;;
6997;SDS011;3539;47.982;12.238;2023-01-04T12:13:25;2.43;;;2.23;;
6997;SDS011;3539;47.982;12.238;2023-01-04T12:15:55;3.00;;;2.43;;
6997;SDS011;3539;47.982;12.238;2023-01-04T12:18:27;2.30;;;2.10;;
6997;SDS011;3539;47.982;12.238;2023-01-04T12:20:57;3.80;;;2.70;;
6997;SDS011;3539;47.982;12.238;2023-01-04T12:23:32;2.70;;;2.27;;
6997;SDS011;3539;47.982;12.238;2023-01-04T12:26:05;4.50;;;2.60;;
6997;SDS011;3539;47.982;12.238;2023-01-04T12:28:39;3.03;;;2.37;;
6997;SDS011;3539;47.982;12.238;2023-01-04T12:31:27;2.53;;;2.33;;
6997;SDS011;3539;47.982;12.238;2023-01-04T12:37:01;2.93;;;2.40;;
6997;SDS011;3539;47.982;12.238;2023-01-04T12:39:35;3.13;;;2.83;;
6997;SDS011;3539;47.982;12.238;2023-01-04T12:45:11;4.57;;;2.93;;
6997;SDS011;3539;47.982;12.238;2023-01-04T12:47:54;3.13;;;2.40;;
6997;SDS011;3539;47.982;12.238;2023-01-04T12:54:03;2.73;;;2.33;;
6997;SDS011;3539;47.982;12.238;2023-01-04T12:59:37;2.83;;;2.43;;
6997;SDS011;3539;47.982;12.238;2023-01-04T13:02:18;2.97;;;2.23;;
6997;SDS011;3539;47.982;12.238;2023-01-04T13:04:49;3.00;;;2.00;;
6997;SDS011;3539;47.982;12.238;2023-01-04T13:07:20;3.07;;;2.23;;
6997;SDS011;3539;47.982;12.238;2023-01-04T13:09:58;2.27;;;2.07;;
6997;SDS011;3539;47.982;12.238;2023-01-04T13:15:33;2.30;;;2.07;;
6997;SDS011;3539;47.982;12.238;2023-01-04T13:18:22;2.90;;;2.17;;
6997;SDS011;3539;47.982;12.238;2023-01-04T13:21:09;3.33;;;2.20;;
6997;SDS011;3539;47.982;12.238;2023-01-04T13:23:38;2.50;;;2.00;;
6997;SDS011;3539;47.982;12.238;2023-01-04T13:34:29;2.47;;;2.00;;
6997;SDS011;3539;47.982;12.238;2023-01-04T13:37:05;2.33;;;1.80;;
6997;SDS011;3539;47.982;12.238;2023-01-04T13:39:38;2.43;;;2.10;;
6997;SDS011;3539;47.982;12.238;2023-01-04T13:42:11;2.10;;;1.83;;
6997;SDS011;3539;47.982;12.238;2023-01-04T13:45:03;2.93;;;2.43;;
6997;SDS011;3539;47.982;12.238;2023-01-04T13:47:45;4.83;;;4.33;;
6997;SDS011;3539;47.982;12.238;2023-01-04T13:50:19;2.90;;;2.60;;
6997;SDS011;3539;47.982;12.238;2023-01-04T13:52:53;2.40;;;2.03;;
6997;SDS011;3539;47.982;12.238;2023-01-04T13:55:21;2.67;;;2.33;;
6997;SDS011;3539;47.982;12.238;2023-01-04T13:57:53;2.63;;;2.03;;
6997;SDS011;3539;47.982;12.238;2023-01-04T14:00:23;1.77;;;1.67;;
6997;SDS011;3539;47.982;12.238;2023-01-04T14:03:03;1.80;;;1.70;;
6997;SDS011;3539;47.982;12.238;2023-01-04T14:05:48;3.33;;;1.60;;
6997;SDS011;3539;47.982;12.238;2023-01-04T14:08:18;3.03;;;1.77;;
6997;SDS011;3539;47.982;12.238;2023-01-04T14:10:46;2.03;;;1.80;;
6997;SDS011;3539;47.982;12.238;2023-01-04T14:13:16;6.03;;;4.13;;
6997;SDS011;3539;47.982;12.238;2023-01-04T14:15:46;3.33;;;2.63;;
6997;SDS011;3539;47.982;12.238;2023-01-04T14:18:23;2.17;;;1.97;;
6997;SDS011;3539;47.982;12.238;2023-01-04T14:20:55;2.30;;;1.70;;
6997;SDS011;3539;47.982;12.238;2023-01-04T14:23:28;2.10;;;1.80;;
6997;SDS011;3539;47.982;12.238;2023-01-04T14:25:59;2.77;;;2.23;;
6997;SDS011;3539;47.982;12.238;2023-01-04T14:28:40;4.93;;;3.30;;
6997;SDS011;3539;47.982;12.238;2023-01-04T14:31:20;2.80;;;2.60;;
6997;SDS011;3539;47.982;12.238;2023-01-04T14:33:49;2.67;;;2.43;;
6997;SDS011;3539;47.982;12.238;2023-01-04T14:36:18;3.73;;;1.70;;
6997;SDS011;3539;47.982;12.238;2023-01-04T14:41:40;1.90;;;1.67;;
6997;SDS011;3539;47.982;12.238;2023-01-04T14:47:00;2.10;;;1.70;;
6997;SDS011;3539;47.982;12.238;2023-01-04T14:49:34;1.73;;;1.60;;
6997;SDS011;3539;47.982;12.238;2023-01-04T14:52:10;1.87;;;1.60;;
6997;SDS011;3539;47.982;12.238;2023-01-04T14:54:39;1.90;;;1.47;;
6997;SDS011;3539;47.982;12.238;2023-01-04T14:57:08;1.97;;;1.60;;
6997;SDS011;3539;47.982;12.238;2023-01-04T14:59:36;1.87;;;1.50;;
6997;SDS011;3539;47.982;12.238;2023-01-04T15:02:09;1.70;;;1.60;;
6997;SDS011;3539;47.982;12.238;2023-01-04T15:04:41;2.87;;;1.90;;
6997;SDS011;3539;47.982;12.238;2023-01-04T15:07:27;2.37;;;1.90;;
6997;SDS011;3539;47.982;12.238;2023-01-04T15:09:59;2.40;;;2.20;;
6997;SDS011;3539;47.982;12.238;2023-01-04T15:12:28;4.80;;;3.47;;
6997;SDS011;3539;47.982;12.238;2023-01-04T15:14:59;4.40;;;3.10;;
6997;SDS011;3539;47.982;12.238;2023-01-04T15:17:35;4.67;;;3.20;;
6997;SDS011;3539;47.982;12.238;2023-01-04T15:20:04;7.93;;;5.33;;
6997;SDS011;3539;47.982;12.238;2023-01-04T15:22:31;6.40;;;3.87;;
6997;SDS011;3539;47.982;12.238;2023-01-04T15:24:58;4.53;;;2.73;;
6997;SDS011;3539;47.982;12.238;2023-01-04T15:27:28;6.13;;;4.20;;
6997;SDS011;3539;47.982;12.238;2023-01-04T15:29:57;4.70;;;3.67;;
6997;SDS011;3539;47.982;12.238;2023-01-04T15:32:26;4.03;;;3.13;;
6997;SDS011;3539;47.982;12.238;2023-01-04T15:34:56;3.50;;;2.93;;
6997;SDS011;3539;47.982;12.238;2023-01-04T15:37:26;3.40;;;2.70;;
6997;SDS011;3539;47.982;12.238;2023-01-04T15:39:56;2.60;;;2.10;;
6997;SDS011;3539;47.982;12.238;2023-01-04T15:42:27;2.20;;;1.97;;
6997;SDS011;3539;47.982;12.238;2023-01-04T15:45:35;5.33;;;3.20;;
6997;SDS011;3539;47.982;12.238;2023-01-04T15:48:10;5.50;;;4.50;;
6997;SDS011;3539;47.982;12.238;2023-01-04T15:50:41;5.00;;;3.93;;
6997;SDS011;3539;47.982;12.238;2023-01-04T15:53:10;4.00;;;3.10;;
6997;SDS011;3539;47.982;12.238;2023-01-04T15:55:40;3.47;;;2.90;;
6997;SDS011;3539;47.982;12.238;2023-01-04T15:58:06;13.20;;;6.80;;
6997;SDS011;3539;47.982;12.238;2023-01-04T16:00:35;8.47;;;5.63;;
6997;SDS011;3539;47.982;12.238;2023-01-04T16:03:03;7.73;;;5.17;;
6997;SDS011;3539;47.982;12.238;2023-01-04T16:05:30;7.00;;;3.70;;
6997;SDS011;3539;47.982;12.238;2023-01-04T16:07:57;3.03;;;2.40;;
6997;SDS011;3539;47.982;12.238;2023-01-04T16:10:25;3.33;;;2.87;;
6997;SDS011;3539;47.982;12.238;2023-01-04T16:12:52;4.40;;;2.80;;
6997;SDS011;3539;47.982;12.238;2023-01-04T16:15:21;2.97;;;2.47;;
6997;SDS011;3539;47.982;12.238;2023-01-04T16:17:52;3.33;;;2.50;;
6997;SDS011;3539;47.982;12.238;2023-01-04T16:20:20;2.97;;;1.87;;
6997;SDS011;3539;47.982;12.238;2023-01-04T16:22:47;3.07;;;2.30;;
6997;SDS011;3539;47.982;12.238;2023-01-04T16:25:14;3.00;;;2.10;;
6997;SDS011;3539;47.982;12.238;2023-01-04T16:27:41;3.53;;;2.50;;
6997;SDS011;3539;47.982;12.238;2023-01-04T16:30:10;6.80;;;4.00;;
6997;SDS011;3539;47.982;12.238;2023-01-04T16:32:39;13.77;;;6.90;;
6997;SDS011;3539;47.982;12.238;2023-01-04T16:35:08;9.27;;;5.47;;
6997;SDS011;3539;47.982;12.238;2023-01-04T16:37:43;6.73;;;4.40;;
6997;SDS011;3539;47.982;12.238;2023-01-04T16:40:11;5.43;;;3.90;;
6997;SDS011;3539;47.982;12.238;2023-01-04T16:42:42;3.93;;;2.80;;
6997;SDS011;3539;47.982;12.238;2023-01-04T16:45:16;3.23;;;2.60;;
6997;SDS011;3539;47.982;12.238;2023-01-04T16:47:53;6.37;;;2.50;;
6997;SDS011;3539;47.982;12.238;2023-01-04T16:50:24;3.30;;;2.33;;
6997;SDS011;3539;47.982;12.238;2023-01-04T16:52:55;3.60;;;2.70;;
6997;SDS011;3539;47.982;12.238;2023-01-04T16:55:27;4.17;;;3.43;;
6997;SDS011;3539;47.982;12.238;2023-01-04T17:00:46;4.77;;;3.27;;
6997;SDS011;3539;47.982;12.238;2023-01-04T17:03:16;4.23;;;2.93;;
6997;SDS011;3539;47.982;12.238;2023-01-04T17:08:37;9.30;;;6.03;;
6997;SDS011;3539;47.982;12.238;2023-01-04T17:11:23;7.23;;;4.50;;
6997;SDS011;3539;47.982;12.238;2023-01-04T17:13:59;7.33;;;4.37;;
6997;SDS011;3539;47.982;12.238;2023-01-04T17:36:01;7.47;;;5.30;;
6997;SDS011;3539;47.982;12.238;2023-01-04T17:39:00;5.27;;;4.20;;
6997;SDS011;3539;47.982;12.238;2023-01-04T17:41:40;2.97;;;2.53;;
6997;SDS011;3539;47.982;12.238;2023-01-04T17:44:32;4.83;;;2.90;;
6997;SDS011;3539;47.982;12.238;2023-01-04T17:47:00;3.30;;;2.57;;
6997;SDS011;3539;47.982;12.238;2023-01-04T17:49:27;7.37;;;4.90;;
6997;SDS011;3539;47.982;12.238;2023-01-04T17:51:56;7.07;;;4.90;;
6997;SDS011;3539;47.982;12.238;2023-01-04T17:54:27;4.20;;;3.13;;
6997;SDS011;3539;47.982;12.238;2023-01-04T17:56:57;4.33;;;3.37;;
6997;SDS011;3539;47.982;12.238;2023-01-04T17:59:24;12.03;;;6.07;;
6997;SDS011;3539;47.982;12.238;2023-01-04T18:01:55;41.40;;;27.17;;
6997;SDS011;3539;47.982;12.238;2023-01-04T18:04:22;18.17;;;11.90;;
6997;SDS011;3539;47.982;12.238;2023-01-04T18:06:52;35.53;;;23.60;;
6997;SDS011;3539;47.982;12.238;2023-01-04T18:09:21;12.73;;;9.50;;
6997;SDS011;3539;47.982;12.238;2023-01-04T18:11:54;6.57;;;4.30;;
6997;SDS011;3539;47.982;12.238;2023-01-04T18:14:23;7.03;;;5.07;;
6997;SDS011;3539;47.982;12.238;2023-01-04T18:16:50;4.37;;;3.23;;
6997;SDS011;3539;47.982;12.238;2023-01-04T18:19:41;3.57;;;2.70;;
6997;SDS011;3539;47.982;12.238;2023-01-04T20:25:48;1.30;;;1.20;;
6997;SDS011;3539;47.982;12.238;2023-01-04T20:28:16;1.90;;;1.50;;
6997;SDS011;3539;47.982;12.238;2023-01-04T20:30:47;2.33;;;1.50;;
6997;SDS011;3539;47.982;12.238;2023-01-04T20:33:13;2.00;;;1.40;;
6997;SDS011;3539;47.982;12.238;2023-01-04T20:35:41;1.73;;;1.20;;
6997;SDS011;3539;47.982;12.238;2023-01-04T20:38:09;1.10;;;1.00;;
6997;SDS011;3539;47.982;12.238;2023-01-04T20:40:37;1.60;;;1.30;;
6997;SDS011;3539;47.982;12.238;2023-01-04T20:43:04;1.40;;;1.20;;
6997;SDS011;3539;47.982;12.238;2023-01-04T20:45:49;1.60;;;1.30;;
6997;SDS011;3539;47.982;12.238;2023-01-04T20:48:16;1.30;;;1.20;;
6997;SDS011;3539;47.982;12.238;2023-01-04T20:50:43;1.77;;;1.57;;
6997;SDS011;3539;47.982;12.238;2023-01-04T20:53:12;2.70;;;2.03;;
6997;SDS011;3539;47.982;12.238;2023-01-04T20:55:41;1.40;;;1.20;;
6997;SDS011;3539;47.982;12.238;2023-01-04T20:58:25;1.20;;;1.10;;
6997;SDS011;3539;47.982;12.238;2023-01-04T21:01:06;1.90;;;1.30;;
6997;SDS011;3539;47.982;12.238;2023-01-04T21:03:36;1.40;;;1.10;;
6997;SDS011;3539;47.982;12.238;2023-01-04T21:06:16;1.97;;;1.30;;
6997;SDS011;3539;47.982;12.238;2023-01-04T21:08:50;1.47;;;1.30;;
6997;SDS011;3539;47.982;12.238;2023-01-04T21:11:24;1.33;;;1.20;;
6997;SDS011;3539;47.982;12.238;2023-01-04T21:13:54;1.40;;;1.20;;
6997;SDS011;3539;47.982;12.238;2023-01-04T21:16:25;1.43;;;1.20;;
6997;SDS011;3539;47.982;12.238;2023-01-04T21:18:57;1.83;;;1.10;;
6997;SDS011;3539;47.982;12.238;2023-01-04T21:21:25;1.70;;;1.47;;
6997;SDS011;3539;47.982;12.238;2023-01-04T21:24:02;1.67;;;1.27;;
6997;SDS011;3539;47.982;12.238;2023-01-04T21:26:31;3.20;;;1.20;;
6997;SDS011;3539;47.982;12.238;2023-01-04T21:29:00;1.57;;;1.40;;
6997;SDS011;3539;47.982;12.238;2023-01-04T21:31:35;1.70;;;1.50;;
6997;SDS011;3539;47.982;12.238;2023-01-04T21:34:05;1.83;;;1.40;;
6997;SDS011;3539;47.982;12.238;2023-01-04T21:36:34;2.17;;;1.40;;
6997;SDS011;3539;47.982;12.238;2023-01-04T21:39:05;2.50;;;1.50;;
6997;SDS011;3539;47.982;12.238;2023-01-04T21:41:35;1.83;;;1.50;;
6997;SDS011;3539;47.982;12.238;2023-01-04T21:44:06;1.60;;;1.43;;
6997;SDS011;3539;47.982;12.238;2023-01-04T21:46:33;1.77;;;1.50;;
6997;SDS011;3539;47.982;12.238;2023-01-04T21:49:03;2.17;;;1.60;;
6997;SDS011;3539;47.982;12.238;2023-01-04T21:51:33;1.70;;;1.33;;
6997;SDS011;3539;47.982;12.238;2023-01-04T21:54:03;1.77;;;1.33;;
6997;SDS011;3539;47.982;12.238;2023-01-04T21:56:36;1.93;;;1.70;;
6997;SDS011;3539;47.982;12.238;2023-01-04T21:59:03;1.80;;;1.50;;
6997;SDS011;3539;47.982;12.238;2023-01-04T22:01:36;1.40;;;1.30;;
6997;SDS011;3539;47.982;12.238;2023-01-04T22:04:03;1.50;;;1.40;;
6997;SDS011;3539;47.982;12.238;2023-01-04T22:06:36;2.67;;;1.40;;
6997;SDS011;3539;47.982;12.238;2023-01-04T22:09:04;1.53;;;1.43;;
6997;SDS011;3539;47.982;12.238;2023-01-04T22:11:33;1.57;;;1.30;;
6997;SDS011;3539;47.982;12.238;2023-01-04T22:14:02;3.67;;;1.47;;
6997;SDS011;3539;47.982;12.238;2023-01-04T22:16:29;1.60;;;1.30;;
6997;SDS011;3539;47.982;12.238;2023-01-04T22:18:56;1.40;;;1.30;;
6997;SDS011;3539;47.982;12.238;2023-01-04T22:21:22;1.53;;;1.43;;
6997;SDS011;3539;47.982;12.238;2023-01-04T22:24:11;1.20;;;1.00;;
6997;SDS011;3539;47.982;12.238;2023-01-04T22:26:54;1.10;;;1.00;;
6997;SDS011;3539;47.982;12.238;2023-01-04T22:29:42;1.00;;;1.00;;
6997;SDS011;3539;47.982;12.238;2023-01-04T22:32:16;0.87;;;0.87;;
6997;SDS011;3539;47.982;12.238;2023-01-04T22:34:43;1.50;;;1.00;;
6997;SDS011;3539;47.982;12.238;2023-01-04T22:37:11;1.03;;;0.93;;
6997;SDS011;3539;47.982;12.238;2023-01-04T22:40:09;1.53;;;1.10;;
6997;SDS011;3539;47.982;12.238;2023-01-04T22:42:30;1.07;;;0.97;;
6997;SDS011;3539;47.982;12.238;2023-01-04T22:45:01;1.10;;;1.00;;
6997;SDS011;3539;47.982;12.238;2023-01-04T22:47:28;0.90;;;0.90;;
6997;SDS011;3539;47.982;12.238;2023-01-04T22:49:54;0.77;;;0.77;;
6997;SDS011;3539;47.982;12.238;2023-01-04T22:52:21;0.80;;;0.80;;
6997;SDS011;3539;47.982;12.238;2023-01-04T22:54:48;0.73;;;0.73;;
6997;SDS011;3539;47.982;12.238;2023-01-04T22:57:15;0.90;;;0.87;;
6997;SDS011;3539;47.982;12.238;2023-01-04T22:59:42;0.77;;;0.77;;
6997;SDS011;3539;47.982;12.238;2023-01-04T23:02:10;0.60;;;0.60;;
6997;SDS011;3539;47.982;12.238;2023-01-04T23:04:37;0.50;;;0.50;;
6997;SDS011;3539;47.982;12.238;2023-01-04T23:07:14;1.13;;;0.50;;
6997;SDS011;3539;47.982;12.238;2023-01-04T23:17:17;0.30;;;0.30;;
6997;SDS011;3539;47.982;12.238;2023-01-04T23:19:48;0.40;;;0.40;;
6997;SDS011;3539;47.982;12.238;2023-01-04T23:22:15;0.50;;;0.50;;
6997;SDS011;3539;47.982;12.238;2023-01-04T23:24:49;1.47;;;0.60;;
6997;SDS011;3539;47.982;12.238;2023-01-04T23:27:19;0.40;;;0.40;;
6997;SDS011;3539;47.982;12.238;2023-01-04T23:29:50;1.23;;;0.60;;
6997;SDS011;3539;47.982;12.238;2023-01-04T23:32:42;0.50;;;0.50;;
6997;SDS011;3539;47.982;12.238;2023-01-04T23:35:13;0.60;;;0.43;;
6997;SDS011;3539;47.982;12.238;2023-01-04T23:37:48;0.53;;;0.53;;
6997;SDS011;3539;47.982;12.238;2023-01-04T23:40:29;0.40;;;0.40;;
6997;SDS011;3539;47.982;12.238;2023-01-04T23:42:56;0.30;;;0.30;;
6997;SDS011;3539;47.982;12.238;2023-01-04T23:45:25;0.53;;;0.50;;
6997;SDS011;3539;47.982;12.238;2023-01-04T23:48:03;0.47;;;0.40;;
6997;SDS011;3539;47.982;12.238;2023-01-04T23:50:42;0.50;;;0.50;;
6997;SDS011;3539;47.982;12.238;2023-01-04T23:53:27;0.40;;;0.40;;
6997;SDS011;3539;47.982;12.238;2023-01-04T23:55:57;0.40;;;0.40;;
6997;SDS011;3539;47.982;12.238;2023-01-04T23:58:25;0.43;;;0.43;;
